Time;durP1;ratioP1;P1;durP2;ratioP2;P2;SDS_P1;SDS_P2;PMS_P1;PMS_P2;Temp;Humidity;BMP_temperature;BMP_pressure;BME280_temperature;BME280_humidity;BME280_pressure;Samples;Min_cycle;Max_cycle;Signal;HPM_P1;HPM_P2
2023/08/11 00:00:37;;;;;;;4.53;2.63;;;19.60;99.90;;;;;;5000127;28;20528;-72
2023/08/11 00:03:06;;;;;;;2.00;1.90;;;19.60;99.90;;;;;;5000091;28;20220;-71
2023/08/11 00:05:37;;;;;;;2.63;2.33;;;19.60;99.90;;;;;;5000044;28;20240;-71
2023/08/11 00:08:05;;;;;;;3.03;2.23;;;19.50;99.90;;;;;;5000469;28;20861;-72
2023/08/11 00:10:32;;;;;;;2.30;2.10;;;19.50;99.90;;;;;;5018189;28;20478;-72
2023/08/11 00:12:58;;;;;;;2.57;2.37;;;19.40;99.90;;;;;;5017828;28;20614;-72
2023/08/11 00:15:24;;;;;;;2.63;2.43;;;19.40;99.90;;;;;;4996831;28;20467;-72
2023/08/11 00:17:52;;;;;;;2.60;2.40;;;19.40;99.90;;;;;;5010914;28;20420;-71
2023/08/11 00:20:19;;;;;;;3.10;2.80;;;19.30;99.90;;;;;;5016688;28;21921;-71
2023/08/11 00:22:45;;;;;;;4.20;2.60;;;19.30;99.90;;;;;;5029638;28;20466;-70
2023/08/11 00:25:11;;;;;;;2.77;2.47;;;19.30;99.90;;;;;;5015999;28;20576;-71
2023/08/11 00:27:37;;;;;;;3.03;2.57;;;19.20;99.90;;;;;;5029880;28;20281;-71
2023/08/11 00:30:04;;;;;;;2.43;2.23;;;19.20;99.90;;;;;;5000920;28;20254;-71
2023/08/11 00:32:30;;;;;;;2.33;2.13;;;19.20;99.90;;;;;;5017611;28;20420;-71
2023/08/11 00:34:56;;;;;;;3.03;2.70;;;19.20;99.90;;;;;;5001505;28;21055;-71
2023/08/11 00:37:22;;;;;;;2.50;2.30;;;19.20;99.90;;;;;;5015882;28;20369;-71
2023/08/11 00:39:47;;;;;;;2.57;2.37;;;19.20;99.90;;;;;;5000866;28;20813;-71
2023/08/11 00:42:13;;;;;;;2.27;2.00;;;19.10;99.90;;;;;;5000462;28;20228;-72
2023/08/11 00:44:39;;;;;;;2.50;2.30;;;19.10;99.90;;;;;;5028140;28;20220;-72
2023/08/11 00:47:05;;;;;;;2.90;2.20;;;19.00;99.90;;;;;;4996912;28;20459;-71
2023/08/11 00:49:31;;;;;;;3.73;2.00;;;19.00;99.90;;;;;;5032300;28;20267;-71
2023/08/11 00:51:57;;;;;;;2.00;1.90;;;19.10;99.90;;;;;;4999595;28;20263;-71
2023/08/11 00:54:25;;;;;;;2.43;2.17;;;19.00;99.90;;;;;;5000395;28;20917;-71
2023/08/11 00:56:51;;;;;;;1.93;1.80;;;19.00;99.90;;;;;;5016637;28;20991;-71
2023/08/11 00:59:21;;;;;;;3.20;2.57;;;19.00;99.90;;;;;;4997545;28;20458;-71
2023/08/11 01:01:47;;;;;;;2.83;2.17;;;18.90;99.90;;;;;;5030525;28;20502;-71
2023/08/11 01:04:13;;;;;;;2.83;2.23;;;18.90;99.90;;;;;;5017951;28;21056;-71
2023/08/11 01:06:41;;;;;;;2.40;2.20;;;18.80;99.90;;;;;;5000427;28;20293;-71
2023/08/11 01:09:28;;;;;;;2.63;2.40;;;18.80;99.90;;;;;;4999502;28;20318;-71
2023/08/11 01:12:22;;;;;;;4.60;2.83;;;18.80;99.90;;;;;;5031654;28;20470;-71
2023/08/11 01:15:01;;;;;;;3.50;2.40;;;18.80;99.90;;;;;;5033483;28;20467;-71
2023/08/11 01:17:29;;;;;;;3.30;2.37;;;18.70;99.90;;;;;;5017613;28;20467;-71
2023/08/11 01:19:55;;;;;;;3.87;2.80;;;18.60;99.90;;;;;;5018526;28;20459;-71
2023/08/11 01:22:27;;;;;;;2.80;2.27;;;18.60;99.90;;;;;;5037795;28;21074;-72
2023/08/11 01:24:55;;;;;;;3.10;2.17;;;18.60;99.90;;;;;;5004008;28;20463;-71
2023/08/11 01:27:21;;;;;;;2.80;2.40;;;18.70;99.90;;;;;;5003432;28;20467;-71
2023/08/11 01:29:47;;;;;;;3.03;2.73;;;18.60;99.90;;;;;;5002740;28;20510;-72
2023/08/11 01:32:13;;;;;;;2.90;2.40;;;18.60;99.90;;;;;;5003921;28;20466;-71
2023/08/11 01:34:38;;;;;;;2.40;2.20;;;18.60;99.90;;;;;;4987455;28;20738;-71
2023/08/11 01:37:04;;;;;;;3.53;2.70;;;18.50;99.90;;;;;;5021011;28;20386;-71
2023/08/11 01:39:31;;;;;;;2.07;1.97;;;18.50;99.90;;;;;;5002623;28;20251;-71
2023/08/11 01:41:58;;;;;;;2.37;2.17;;;18.40;99.90;;;;;;5022304;28;20783;-71
2023/08/11 01:44:25;;;;;;;2.70;2.17;;;18.40;99.90;;;;;;4997691;28;21001;-71
2023/08/11 01:46:54;;;;;;;4.00;2.60;;;18.40;99.90;;;;;;5003876;28;20481;-72
2023/08/11 01:49:22;;;;;;;3.00;2.10;;;18.40;99.90;;;;;;5005068;28;20463;-72
2023/08/11 01:51:48;;;;;;;2.90;2.40;;;18.30;99.90;;;;;;5036274;28;20481;-71
2023/08/11 01:54:14;;;;;;;2.77;2.50;;;18.30;99.90;;;;;;5005432;28;20780;-71
2023/08/11 01:56:42;;;;;;;4.13;2.40;;;18.30;99.90;;;;;;5006563;28;20350;-71
2023/08/11 01:59:12;;;;;;;1.97;1.80;;;18.30;99.90;;;;;;5005341;28;20219;-71
2023/08/11 02:01:38;;;;;;;4.23;2.50;;;18.30;99.90;;;;;;5005425;28;20467;-71
2023/08/11 02:04:05;;;;;;;3.17;2.63;;;18.20;99.90;;;;;;5019538;28;20471;-71
2023/08/11 02:06:31;;;;;;;2.33;2.13;;;18.20;99.90;;;;;;5003133;28;20509;-71
2023/08/11 02:08:57;;;;;;;3.00;2.77;;;18.20;99.90;;;;;;5003394;28;20462;-71
2023/08/11 02:11:23;;;;;;;1.80;1.70;;;18.10;99.90;;;;;;5021523;28;21209;-72
2023/08/11 02:13:48;;;;;;;2.63;2.43;;;18.10;99.90;;;;;;5003079;28;20784;-71
2023/08/11 02:16:14;;;;;;;2.43;2.23;;;18.10;99.90;;;;;;5034785;28;20747;-71
2023/08/11 02:18:40;;;;;;;3.03;2.30;;;18.10;99.90;;;;;;4988149;28;20223;-71
2023/08/11 02:21:07;;;;;;;2.10;1.90;;;18.00;99.90;;;;;;5001570;28;20796;-71
2023/08/11 02:23:33;;;;;;;2.87;2.50;;;17.90;99.90;;;;;;5005248;28;20227;-71
2023/08/11 02:26:00;;;;;;;11.93;2.50;;;17.90;99.90;;;;;;5019039;28;20474;-71
2023/08/11 02:28:26;;;;;;;3.93;2.90;;;17.80;99.90;;;;;;5036530;28;21338;-71
2023/08/11 02:30:52;;;;;;;7.47;2.20;;;17.80;99.90;;;;;;5003523;28;21051;-70
2023/08/11 02:33:18;;;;;;;6.20;3.17;;;17.80;99.90;;;;;;5003828;28;20239;-71
2023/08/11 02:35:45;;;;;;;2.57;2.37;;;17.80;99.90;;;;;;5022008;28;20553;-71
2023/08/11 02:38:13;;;;;;;3.63;2.60;;;17.60;99.90;;;;;;5033564;28;20319;-71
2023/08/11 02:40:40;;;;;;;2.97;2.50;;;17.60;99.90;;;;;;5038802;28;20572;-71
2023/08/11 02:43:07;;;;;;;4.10;2.23;;;17.70;99.90;;;;;;5019398;28;20471;-71
2023/08/11 02:45:33;;;;;;;2.37;2.17;;;17.70;99.90;;;;;;5020923;28;20235;-72
2023/08/11 02:47:58;;;;;;;4.90;2.70;;;17.80;99.90;;;;;;5020640;28;20463;-70
2023/08/11 02:50:24;;;;;;;2.73;2.53;;;17.70;99.90;;;;;;5003148;28;20343;-71
2023/08/11 02:52:50;;;;;;;2.50;2.30;;;17.70;99.90;;;;;;5020911;28;20236;-70
2023/08/11 02:55:16;;;;;;;2.37;2.17;;;17.60;99.90;;;;;;5013890;28;20232;-71
2023/08/11 02:57:41;;;;;;;3.00;2.33;;;17.70;99.90;;;;;;5006447;28;20262;-71
2023/08/11 03:00:14;;;;;;;2.90;2.63;;;17.70;99.90;;;;;;5018754;28;21595;-70
2023/08/11 03:02:47;;;;;;;3.10;2.77;;;17.70;99.90;;;;;;5002203;28;20224;-71
2023/08/11 03:05:14;;;;;;;4.40;3.67;;;17.70;99.90;;;;;;5004393;28;20706;-70
2023/08/11 03:07:43;;;;;;;4.40;2.70;;;17.70;99.90;;;;;;5021400;28;20485;-70
2023/08/11 03:10:09;;;;;;;2.63;2.40;;;17.70;99.90;;;;;;5019615;28;20478;-70
2023/08/11 03:12:36;;;;;;;3.10;2.53;;;17.70;99.90;;;;;;5036163;28;20973;-71
2023/08/11 03:15:06;;;;;;;3.30;2.83;;;17.70;99.90;;;;;;5002313;28;20500;-71
2023/08/11 03:17:33;;;;;;;2.73;2.53;;;17.70;99.90;;;;;;5004793;28;20466;-71
2023/08/11 03:19:59;;;;;;;2.90;2.60;;;17.60;99.90;;;;;;5004126;28;21073;-71
2023/08/11 03:22:25;;;;;;;2.60;2.27;;;17.50;99.90;;;;;;5005810;28;20544;-71
2023/08/11 03:24:51;;;;;;;8.20;2.67;;;17.50;99.90;;;;;;5002205;28;20529;-71
2023/08/11 03:27:18;;;;;;;3.10;2.80;;;17.50;99.90;;;;;;5036206;28;20535;-70
2023/08/11 03:29:44;;;;;;;3.43;3.00;;;17.50;99.90;;;;;;4985300;28;20233;-72
2023/08/11 03:32:10;;;;;;;3.97;2.33;;;17.40;99.90;;;;;;5018708;28;20456;-70
2023/08/11 03:34:37;;;;;;;5.53;3.40;;;17.40;99.90;;;;;;5005327;28;20471;-71
2023/08/11 03:37:03;;;;;;;3.10;2.27;;;17.30;99.90;;;;;;5003462;28;20482;-72
2023/08/11 03:39:29;;;;;;;2.07;1.87;;;17.40;99.90;;;;;;5002919;28;20497;-71
2023/08/11 03:41:56;;;;;;;2.57;2.37;;;17.30;99.90;;;;;;5004163;28;20385;-71
2023/08/11 03:44:22;;;;;;;3.40;2.50;;;17.30;99.90;;;;;;5020559;28;21051;-70
2023/08/11 03:46:49;;;;;;;2.33;2.13;;;17.20;99.90;;;;;;5002747;28;20219;-70
2023/08/11 03:49:14;;;;;;;3.70;2.77;;;17.20;99.90;;;;;;5001861;28;20466;-70
2023/08/11 03:51:41;;;;;;;3.73;2.27;;;17.30;99.90;;;;;;5001695;28;20843;-69
2023/08/11 03:54:07;;;;;;;3.93;2.23;;;17.30;99.90;;;;;;5004424;28;20459;-71
2023/08/11 03:56:35;;;;;;;3.03;2.73;;;17.20;99.90;;;;;;5004042;28;20220;-70
2023/08/11 03:59:01;;;;;;;2.97;2.40;;;17.20;99.90;;;;;;4994078;28;21078;-71
2023/08/11 04:01:28;;;;;;;4.10;2.97;;;17.10;99.90;;;;;;5003546;28;20466;-71
2023/08/11 04:03:53;;;;;;;2.60;2.40;;;17.00;99.90;;;;;;5002981;28;20270;-71
2023/08/11 04:06:19;;;;;;;3.00;2.27;;;16.90;99.90;;;;;;5020490;28;20454;-71
2023/08/11 04:08:45;;;;;;;3.30;2.63;;;17.00;99.90;;;;;;5020657;28;20228;-71
2023/08/11 04:11:11;;;;;;;2.87;2.47;;;17.10;99.90;;;;;;5017766;28;20724;-72
2023/08/11 04:13:36;;;;;;;3.10;2.33;;;17.10;99.90;;;;;;5004300;28;20231;-70
2023/08/11 04:16:02;;;;;;;3.60;2.63;;;17.10;99.90;;;;;;5018404;28;20508;-71
2023/08/11 04:18:28;;;;;;;2.43;2.23;;;17.10;99.90;;;;;;5021593;28;20713;-71
2023/08/11 04:20:54;;;;;;;2.83;2.53;;;17.10;99.90;;;;;;5002927;28;20292;-71
2023/08/11 04:23:20;;;;;;;4.87;2.70;;;17.10;99.90;;;;;;5002465;28;20507;-71
2023/08/11 04:25:46;;;;;;;3.30;2.70;;;17.10;99.90;;;;;;5018731;28;20228;-71
2023/08/11 04:28:12;;;;;;;3.30;3.00;;;17.10;99.90;;;;;;5003917;28;20220;-71
2023/08/11 04:30:38;;;;;;;3.17;2.60;;;17.10;99.90;;;;;;5003202;28;20747;-70
2023/08/11 04:33:05;;;;;;;2.10;2.00;;;17.10;99.90;;;;;;5002779;28;21018;-70
2023/08/11 04:35:33;;;;;;;2.93;2.50;;;17.00;99.90;;;;;;5037335;28;21094;-71
2023/08/11 04:37:59;;;;;;;3.60;2.50;;;17.00;99.90;;;;;;5018575;28;20462;-70
2023/08/11 04:40:27;;;;;;;3.40;3.10;;;17.00;99.90;;;;;;5037247;28;21066;-70
2023/08/11 04:42:53;;;;;;;3.00;2.30;;;17.00;99.90;;;;;;5000668;28;20467;-70
2023/08/11 04:45:26;;;;;;;2.40;2.20;;;17.00;99.90;;;;;;5002613;28;20767;-71
2023/08/11 04:47:52;;;;;;;3.07;2.77;;;17.00;99.90;;;;;;5002515;28;20466;-71
2023/08/11 04:50:19;;;;;;;4.40;2.97;;;17.00;99.90;;;;;;5018187;28;20463;-71
2023/08/11 04:52:48;;;;;;;2.83;2.50;;;17.00;99.90;;;;;;4995237;28;20485;-71
2023/08/11 04:55:13;;;;;;;4.90;2.67;;;17.00;99.90;;;;;;5024478;28;20486;-71
2023/08/11 04:57:39;;;;;;;4.60;3.20;;;17.00;99.90;;;;;;5024622;28;20235;-70
2023/08/11 05:00:06;;;;;;;3.40;2.70;;;17.00;99.90;;;;;;5005477;28;20236;-70
2023/08/11 05:02:33;;;;;;;3.50;2.17;;;16.90;99.90;;;;;;5022297;28;20458;-71
2023/08/11 05:04:58;;;;;;;3.80;2.70;;;16.80;99.90;;;;;;5022685;28;20479;-70
2023/08/11 05:07:24;;;;;;;3.20;2.90;;;16.90;99.90;;;;;;5039093;28;20489;-70
2023/08/11 05:09:50;;;;;;;2.93;2.60;;;16.90;99.90;;;;;;5039482;28;20227;-71
2023/08/11 05:12:16;;;;;;;2.33;1.97;;;16.90;99.90;;;;;;5013133;28;20246;-71
2023/08/11 05:14:42;;;;;;;4.20;2.83;;;16.80;99.90;;;;;;5010042;28;20295;-70
2023/08/11 05:17:08;;;;;;;3.17;2.87;;;16.90;99.90;;;;;;5023643;28;20499;-70
2023/08/11 05:19:36;;;;;;;4.83;2.97;;;16.90;99.90;;;;;;5022496;28;20480;-71
2023/08/11 05:22:02;;;;;;;2.40;2.20;;;17.00;99.90;;;;;;5020811;28;20474;-70
2023/08/11 05:24:28;;;;;;;2.57;2.30;;;17.00;99.90;;;;;;5024779;28;20539;-71
2023/08/11 05:26:53;;;;;;;3.90;3.10;;;17.00;99.90;;;;;;5022247;28;20580;-71
2023/08/11 05:29:19;;;;;;;3.13;2.60;;;17.00;99.90;;;;;;5014935;28;20305;-70
2023/08/11 05:31:45;;;;;;;6.23;3.23;;;17.00;99.90;;;;;;5036655;28;20387;-69
2023/08/11 05:34:10;;;;;;;3.63;2.30;;;17.10;99.90;;;;;;5022213;28;20227;-71
2023/08/11 05:36:36;;;;;;;2.33;2.23;;;17.10;99.90;;;;;;5022471;28;20414;-71
2023/08/11 05:39:03;;;;;;;5.20;2.67;;;17.20;99.90;;;;;;5014667;28;20216;-70
2023/08/11 05:41:29;;;;;;;7.70;2.10;;;17.20;99.90;;;;;;5026390;28;20220;-71
2023/08/11 05:43:54;;;;;;;4.13;2.90;;;17.20;99.90;;;;;;5042139;28;21259;-71
2023/08/11 05:46:20;;;;;;;3.03;2.43;;;17.20;99.90;;;;;;5025781;28;20707;-70
2023/08/11 05:48:48;;;;;;;2.83;2.63;;;17.30;99.90;;;;;;5044244;28;20709;-71
2023/08/11 05:51:15;;;;;;;2.40;2.20;;;17.30;99.90;;;;;;5022259;28;20207;-70
2023/08/11 05:53:40;;;;;;;3.07;2.30;;;17.30;99.90;;;;;;5040813;28;20486;-71
2023/08/11 05:56:06;;;;;;;3.50;2.80;;;17.30;99.90;;;;;;5024758;28;20458;-71
2023/08/11 05:58:32;;;;;;;3.50;2.67;;;17.40;99.90;;;;;;5025917;28;20235;-71
2023/08/11 06:00:57;;;;;;;3.20;2.37;;;17.40;99.90;;;;;;5023744;28;20227;-71
2023/08/11 06:03:29;;;;;;;3.30;2.70;;;17.40;99.90;;;;;;5041017;28;20320;-71
2023/08/11 06:06:04;;;;;;;2.47;2.23;;;17.50;99.90;;;;;;5025002;28;20227;-71
2023/08/11 06:08:30;;;;;;;3.37;2.70;;;17.50;99.90;;;;;;5042388;28;20484;-71
2023/08/11 06:10:56;;;;;;;2.73;2.43;;;17.60;99.90;;;;;;5024277;28;20484;-71
2023/08/11 06:13:25;;;;;;;4.80;2.93;;;17.60;99.90;;;;;;5013312;28;20466;-71
2023/08/11 06:15:51;;;;;;;5.00;3.30;;;17.70;99.90;;;;;;5003857;28;20255;-71
2023/08/11 06:18:19;;;;;;;2.77;2.57;;;17.70;99.90;;;;;;5025863;28;20538;-71
2023/08/11 06:20:45;;;;;;;4.03;2.70;;;17.70;99.90;;;;;;5009917;28;20223;-72
2023/08/11 06:23:11;;;;;;;5.07;4.20;;;17.70;99.90;;;;;;5023486;28;20447;-71
2023/08/11 06:25:37;;;;;;;3.03;2.23;;;17.80;99.90;;;;;;5026323;28;20266;-71
2023/08/11 06:28:03;;;;;;;3.70;3.00;;;17.90;99.90;;;;;;5014925;28;20502;-72
2023/08/11 06:30:30;;;;;;;4.73;3.07;;;17.90;99.90;;;;;;4998736;28;20227;-71
2023/08/11 06:32:56;;;;;;;3.13;2.47;;;18.00;99.90;;;;;;5004794;28;20236;-71
2023/08/11 06:35:22;;;;;;;2.60;2.40;;;18.10;99.90;;;;;;5038914;28;20941;-71
2023/08/11 06:37:48;;;;;;;4.60;3.03;;;18.10;99.90;;;;;;5005330;28;20474;-71
2023/08/11 06:40:13;;;;;;;3.00;2.70;;;18.10;99.90;;;;;;5020622;28;20975;-71
2023/08/11 06:42:39;;;;;;;3.87;3.20;;;18.20;99.90;;;;;;5003091;28;20228;-71
2023/08/11 06:45:08;;;;;;;2.53;2.33;;;18.30;99.90;;;;;;5020304;28;21758;-71
2023/08/11 06:47:35;;;;;;;3.53;2.80;;;18.40;99.90;;;;;;5005421;28;20467;-71
2023/08/11 06:50:01;;;;;;;3.00;2.80;;;18.50;99.90;;;;;;5003876;28;20497;-72
2023/08/11 06:52:27;;;;;;;4.40;3.33;;;18.50;99.90;;;;;;5036728;28;20483;-71
2023/08/11 06:54:53;;;;;;;4.13;3.37;;;18.50;99.90;;;;;;5004327;28;20477;-70
2023/08/11 06:57:22;;;;;;;6.60;3.70;;;18.60;99.90;;;;;;5023407;28;20462;-71
2023/08/11 06:59:49;;;;;;;3.23;3.03;;;18.60;99.90;;;;;;5004005;28;20221;-71
2023/08/11 07:02:15;;;;;;;3.80;3.50;;;18.70;99.90;;;;;;4984314;28;20819;-71
2023/08/11 07:04:40;;;;;;;4.40;3.57;;;18.80;99.90;;;;;;4988067;28;20503;-72
2023/08/11 07:07:07;;;;;;;4.10;3.60;;;19.00;99.90;;;;;;5002484;28;20243;-71
2023/08/11 07:09:33;;;;;;;3.80;3.50;;;19.00;99.90;;;;;;5019683;28;20355;-72
2023/08/11 07:11:59;;;;;;;5.77;4.27;;;19.10;99.90;;;;;;5021514;28;20510;-71
2023/08/11 07:14:25;;;;;;;4.63;3.93;;;19.20;99.90;;;;;;5004727;28;20458;-71
2023/08/11 07:16:50;;;;;;;4.13;3.70;;;19.20;99.90;;;;;;5005804;28;20346;-71
2023/08/11 07:19:18;;;;;;;2.97;2.77;;;19.10;99.90;;;;;;5020191;28;20247;-71
2023/08/11 07:21:44;;;;;;;3.60;3.30;;;19.30;99.90;;;;;;5035620;28;20226;-71
2023/08/11 07:24:10;;;;;;;4.87;3.63;;;19.40;99.90;;;;;;5001181;28;20467;-72
2023/08/11 07:26:36;;;;;;;5.43;4.33;;;19.40;99.90;;;;;;5036154;28;20469;-72
2023/08/11 07:29:01;;;;;;;5.67;3.63;;;19.40;99.90;;;;;;5002860;28;20463;-71
2023/08/11 07:31:27;;;;;;;7.60;3.97;;;19.40;99.90;;;;;;5000994;28;20224;-72
2023/08/11 07:33:52;;;;;;;3.30;3.00;;;19.50;99.90;;;;;;5001723;28;20240;-72
2023/08/11 07:36:19;;;;;;;3.60;3.30;;;19.60;99.90;;;;;;5005906;28;20231;-72
2023/08/11 07:38:45;;;;;;;7.40;3.70;;;19.70;99.90;;;;;;5004398;28;20227;-71
2023/08/11 07:41:10;;;;;;;5.03;3.97;;;19.70;99.90;;;;;;5002403;28;20501;-71
2023/08/11 07:43:36;;;;;;;4.07;3.70;;;19.90;99.90;;;;;;5022124;28;20319;-71
2023/08/11 07:46:01;;;;;;;6.23;4.00;;;19.90;99.90;;;;;;4984772;28;20228;-72
2023/08/11 07:48:27;;;;;;;4.20;3.80;;;20.10;99.90;;;;;;5021501;28;20220;-70
2023/08/11 07:50:53;;;;;;;5.03;4.13;;;20.20;99.90;;;;;;5003023;28;20832;-71
2023/08/11 07:53:18;;;;;;;6.37;3.40;;;20.20;99.90;;;;;;5021421;28;20228;-71
2023/08/11 07:55:45;;;;;;;5.20;4.30;;;20.20;99.90;;;;;;5003596;28;20595;-71
2023/08/11 07:58:10;;;;;;;5.63;3.13;;;20.40;99.90;;;;;;5036014;28;20784;-71
2023/08/11 08:00:36;;;;;;;4.33;3.50;;;20.50;99.90;;;;;;5018647;28;20487;-72
2023/08/11 08:03:02;;;;;;;4.00;3.70;;;20.60;99.90;;;;;;5003504;28;20332;-71
2023/08/11 08:05:27;;;;;;;6.20;3.20;;;20.70;99.90;;;;;;5003525;28;20342;-72
2023/08/11 08:07:53;;;;;;;4.70;3.50;;;20.70;99.90;;;;;;5037309;28;21508;-71
2023/08/11 08:10:20;;;;;;;4.47;3.83;;;20.70;99.90;;;;;;5020710;28;20284;-71
2023/08/11 08:12:45;;;;;;;4.40;4.00;;;20.80;99.90;;;;;;5004289;28;20297;-74
2023/08/11 08:15:12;;;;;;;4.30;3.90;;;21.00;99.90;;;;;;5003500;28;21916;-71
2023/08/11 08:17:39;;;;;;;4.30;3.83;;;21.00;99.90;;;;;;5020443;28;20311;-71
2023/08/11 08:20:09;;;;;;;4.20;3.60;;;21.10;99.90;;;;;;5018368;28;20480;-71
2023/08/11 08:22:38;;;;;;;4.70;3.60;;;21.30;99.90;;;;;;5020160;28;20473;-72
2023/08/11 08:25:07;;;;;;;4.43;4.03;;;21.50;99.90;;;;;;5035407;28;21758;-72
2023/08/11 08:27:38;;;;;;;3.90;3.60;;;21.70;99.90;;;;;;5008419;28;20465;-71
2023/08/11 08:30:05;;;;;;;3.27;3.07;;;21.90;99.90;;;;;;5006349;28;20478;-72
2023/08/11 08:32:31;;;;;;;3.70;3.40;;;22.10;99.90;;;;;;5008766;28;20474;-71
2023/08/11 08:34:57;;;;;;;4.60;3.30;;;22.20;99.90;;;;;;5008806;28;20471;-72
2023/08/11 08:37:24;;;;;;;3.80;3.50;;;22.20;99.90;;;;;;5021411;28;20500;-72
2023/08/11 08:39:53;;;;;;;5.83;3.97;;;22.40;99.90;;;;;;5023948;28;20346;-72
2023/08/11 08:42:21;;;;;;;3.97;3.57;;;22.50;99.90;;;;;;5025272;28;20469;-72
2023/08/11 08:44:52;;;;;;;6.63;4.23;;;22.50;99.90;;;;;;5044757;28;20523;-72
2023/08/11 08:47:20;;;;;;;4.47;3.70;;;22.50;99.90;;;;;;5027726;28;20479;-72
2023/08/11 08:49:48;;;;;;;4.20;3.80;;;22.50;99.90;;;;;;5023390;28;20487;-72
2023/08/11 08:52:15;;;;;;;4.40;3.80;;;22.70;99.90;;;;;;5039513;28;21084;-72
2023/08/11 08:54:41;;;;;;;4.17;3.77;;;22.90;99.90;;;;;;5024316;28;20477;-72
2023/08/11 08:57:09;;;;;;;5.60;4.30;;;23.30;99.90;;;;;;5013409;28;20478;-72
2023/08/11 08:59:36;;;;;;;4.00;3.37;;;23.30;99.90;;;;;;5004735;28;20219;-72
2023/08/11 09:02:02;;;;;;;3.40;3.10;;;23.40;99.90;;;;;;4994292;28;20474;-72
2023/08/11 09:04:28;;;;;;;3.57;3.27;;;23.50;99.90;;;;;;5022242;28;20462;-72
2023/08/11 09:06:54;;;;;;;3.60;3.33;;;23.40;99.90;;;;;;5021379;28;20558;-73
2023/08/11 09:09:20;;;;;;;5.30;3.30;;;23.60;99.90;;;;;;5001894;28;20457;-72
2023/08/11 09:11:48;;;;;;;4.13;3.73;;;23.70;99.90;;;;;;4987646;28;20510;-72
2023/08/11 09:14:14;;;;;;;3.73;3.20;;;23.70;99.90;;;;;;5020793;28;20469;-72
2023/08/11 09:16:40;;;;;;;4.20;3.70;;;23.80;99.90;;;;;;5007190;28;20461;-72
2023/08/11 09:19:10;;;;;;;3.53;3.23;;;24.10;99.90;;;;;;5003261;28;20476;-72
2023/08/11 09:21:36;;;;;;;4.80;4.13;;;24.20;99.90;;;;;;5020488;28;21431;-72
2023/08/11 09:24:01;;;;;;;4.00;3.63;;;24.30;99.90;;;;;;5036622;28;20493;-72
2023/08/11 09:26:27;;;;;;;4.30;3.90;;;24.50;99.90;;;;;;5022458;28;20228;-72
2023/08/11 09:28:54;;;;;;;3.93;3.53;;;24.50;99.90;;;;;;5003385;28;21217;-72
2023/08/11 09:31:21;;;;;;;3.80;3.40;;;24.60;99.90;;;;;;5006070;28;21248;-73
2023/08/11 09:33:47;;;;;;;4.40;3.87;;;24.70;99.90;;;;;;5007474;28;20478;-72
2023/08/11 09:36:14;;;;;;;3.40;3.10;;;25.00;99.90;;;;;;5037641;28;20465;-72
2023/08/11 09:38:44;;;;;;;3.30;3.10;;;25.30;99.90;;;;;;5019615;28;20579;-72
2023/08/11 09:41:11;;;;;;;4.20;3.77;;;25.30;99.90;;;;;;5020265;28;20495;-73
2023/08/11 09:43:37;;;;;;;3.53;3.23;;;25.30;99.90;;;;;;5002714;28;20470;-73
2023/08/11 09:46:03;;;;;;;3.90;3.60;;;25.30;99.90;;;;;;5037514;28;20478;-72
2023/08/11 09:48:28;;;;;;;3.70;3.00;;;25.60;99.90;;;;;;5004136;28;20228;-72
2023/08/11 09:50:56;;;;;;;3.10;2.90;;;25.70;99.90;;;;;;5019947;28;20296;-73
2023/08/11 09:53:23;;;;;;;3.57;3.27;;;25.70;99.90;;;;;;5036672;28;20242;-72
2023/08/11 09:55:50;;;;;;;3.53;3.23;;;25.70;99.90;;;;;;5005751;28;20509;-72
2023/08/11 09:58:18;;;;;;;3.80;3.50;;;25.90;99.90;;;;;;5004302;28;20541;-72
2023/08/11 10:00:47;;;;;;;4.70;3.30;;;26.30;99.90;;;;;;5019777;28;20494;-73
2023/08/11 10:03:18;;;;;;;5.77;3.77;;;26.50;99.90;;;;;;5002740;28;20489;-72
2023/08/11 10:05:46;;;;;;;4.60;4.10;;;26.60;99.90;;;;;;5022991;28;20476;-73
2023/08/11 10:08:19;;;;;;;7.73;4.57;;;26.70;99.90;;;;;;5021570;28;20438;-73
2023/08/11 10:10:45;;;;;;;4.43;4.03;;;27.00;99.90;;;;;;5021136;28;20462;-73
2023/08/11 10:13:15;;;;;;;4.67;4.27;;;27.00;99.90;;;;;;5000594;28;20502;-73
2023/08/11 10:15:42;;;;;;;4.53;3.40;;;26.90;99.90;;;;;;5019582;28;21763;-73
2023/08/11 10:18:08;;;;;;;3.07;2.87;;;27.00;99.90;;;;;;5001596;28;20565;-72
2023/08/11 10:20:34;;;;;;;3.67;3.37;;;27.20;99.90;;;;;;5002868;28;20230;-73
2023/08/11 10:23:01;;;;;;;3.13;2.93;;;27.30;99.90;;;;;;5017395;28;20223;-73
2023/08/11 10:25:28;;;;;;;3.00;2.80;;;27.50;99.90;;;;;;5035769;28;20235;-73
2023/08/11 10:27:55;;;;;;;3.30;3.00;;;27.70;99.90;;;;;;5001733;28;21316;-73
2023/08/11 10:30:23;;;;;;;3.13;2.40;;;27.70;99.90;;;;;;5002256;28;20227;-72
2023/08/11 10:33:01;;;;;;;3.05;2.75;;;27.80;99.90;;;;;;5000460;28;20251;-74
2023/08/11 10:35:34;;;;;;;5.07;3.38;;;27.80;99.90;;;;;;5000927;28;20239;-74
2023/08/11 10:38:03;;;;;;;4.53;3.25;;;28.10;99.90;;;;;;4986312;28;20227;-73
2023/08/11 10:40:39;;;;;;;3.47;3.20;;;28.30;99.90;;;;;;5003246;28;20219;-73
2023/08/11 10:43:05;;;;;;;3.53;3.28;;;28.30;99.90;;;;;;5017951;28;20950;-73
2023/08/11 10:45:36;;;;;;;3.10;2.90;;;28.10;99.90;;;;;;5018669;28;20264;-73
2023/08/11 10:48:09;;;;;;;3.30;3.10;;;28.10;99.90;;;;;;5002511;28;20353;-74
2023/08/11 10:50:37;;;;;;;3.30;3.00;;;28.40;99.40;;;;;;5021019;28;20227;-73
2023/08/11 10:53:19;;;;;;;3.38;3.17;;;28.80;99.30;;;;;;5001233;28;20235;-73
2023/08/11 10:55:59;;;;;;;3.30;3.10;;;28.70;99.90;;;;;;5001553;28;20235;-73
2023/08/11 10:58:26;;;;;;;4.40;3.60;;;28.80;99.90;;;;;;5002088;28;20231;-73
2023/08/11 11:00:52;;;;;;;3.38;2.95;;;28.70;99.90;;;;;;5018106;28;20764;-73
2023/08/11 11:03:18;;;;;;;3.40;3.10;;;28.90;99.70;;;;;;5000533;28;20238;-74
2023/08/11 11:05:44;;;;;;;3.28;3.08;;;29.10;99.90;;;;;;5020729;28;20241;-73
2023/08/11 11:08:10;;;;;;;3.05;2.85;;;29.10;99.90;;;;;;5001012;28;20227;-74
2023/08/11 11:10:35;;;;;;;2.88;2.67;;;29.30;99.90;;;;;;5018672;28;21898;-73
2023/08/11 11:13:01;;;;;;;4.60;3.38;;;29.20;99.90;;;;;;4998050;28;20239;-73
2023/08/11 11:15:29;;;;;;;3.45;3.15;;;29.00;99.70;;;;;;5016476;28;20323;-73
2023/08/11 11:17:55;;;;;;;3.92;3.20;;;29.20;99.60;;;;;;4999087;28;20220;-74
2023/08/11 11:20:22;;;;;;;3.00;2.80;;;29.60;99.30;;;;;;4986120;28;20230;-73
2023/08/11 11:22:49;;;;;;;3.45;3.25;;;29.80;99.30;;;;;;4981285;28;20335;-74
2023/08/11 11:25:16;;;;;;;4.63;3.45;;;29.60;99.00;;;;;;4997105;28;20244;-74
2023/08/11 11:27:42;;;;;;;3.35;3.05;;;29.40;99.00;;;;;;5014691;28;20219;-74
2023/08/11 11:30:09;;;;;;;3.20;2.88;;;29.60;98.90;;;;;;5014162;28;20227;-73
2023/08/11 11:32:36;;;;;;;3.28;3.00;;;29.60;98.70;;;;;;4996700;28;21108;-74
2023/08/11 11:35:04;;;;;;;3.60;3.30;;;29.50;98.50;;;;;;5017758;28;20224;-74
2023/08/11 11:37:32;;;;;;;3.40;3.15;;;29.70;98.20;;;;;;5015990;28;21229;-74
2023/08/11 11:39:59;;;;;;;3.20;2.88;;;29.80;97.40;;;;;;4997702;28;20334;-74
2023/08/11 11:42:31;;;;;;;3.47;3.17;;;29.90;97.60;;;;;;5016348;28;20327;-73
2023/08/11 11:44:58;;;;;;;3.42;3.03;;;29.80;97.50;;;;;;5015607;28;20227;-74
2023/08/11 11:47:24;;;;;;;2.97;2.78;;;29.70;97.90;;;;;;5000014;28;21751;-74
2023/08/11 11:49:57;;;;;;;3.35;3.15;;;30.00;97.70;;;;;;4999336;28;20354;-73
2023/08/11 11:52:24;;;;;;;3.22;3.03;;;30.20;98.20;;;;;;5037077;28;21729;-74
2023/08/11 11:54:54;;;;;;;3.50;3.20;;;30.30;97.80;;;;;;5020487;28;20226;-74
2023/08/11 11:57:21;;;;;;;3.25;3.05;;;30.10;97.40;;;;;;5038074;28;20233;-74
2023/08/11 11:59:49;;;;;;;3.97;3.65;;;30.20;97.20;;;;;;5038064;28;20220;-74
2023/08/11 12:02:16;;;;;;;5.60;3.97;;;30.70;96.70;;;;;;5020396;28;20226;-74
2023/08/11 12:04:44;;;;;;;2.70;2.50;;;30.70;97.00;;;;;;5013463;28;20216;-73
2023/08/11 12:07:23;;;;;;;3.55;3.25;;;30.40;97.00;;;;;;5008621;28;20973;-75
2023/08/11 12:09:53;;;;;;;3.22;2.92;;;30.50;96.70;;;;;;4999760;28;20887;-75
2023/08/11 12:12:19;;;;;;;3.50;3.20;;;30.70;96.80;;;;;;5036139;28;20244;-73
2023/08/11 12:14:45;;;;;;;4.05;3.65;;;30.50;96.00;;;;;;5036843;28;20234;-74
2023/08/11 12:17:10;;;;;;;3.55;3.25;;;30.40;96.20;;;;;;5000768;28;20228;-73
2023/08/11 12:19:36;;;;;;;3.35;3.05;;;30.50;96.80;;;;;;5013846;28;20227;-75
2023/08/11 12:22:02;;;;;;;2.80;2.60;;;30.60;96.30;;;;;;5015872;28;20752;-74
2023/08/11 12:24:29;;;;;;;2.85;2.65;;;30.60;95.90;;;;;;5015385;28;20771;-74
2023/08/11 12:26:54;;;;;;;3.35;3.15;;;30.80;96.90;;;;;;5002159;28;20227;-74
2023/08/11 12:29:20;;;;;;;3.75;3.45;;;30.90;96.00;;;;;;5013175;28;20298;-74
2023/08/11 12:31:46;;;;;;;3.00;2.80;;;30.90;95.90;;;;;;5018500;28;20297;-74
2023/08/11 12:34:11;;;;;;;3.15;2.72;;;30.70;95.60;;;;;;5015207;28;20263;-74
2023/08/11 12:36:37;;;;;;;3.28;2.97;;;30.80;95.50;;;;;;5000043;28;20226;-74
2023/08/11 12:39:03;;;;;;;3.08;2.88;;;30.80;95.00;;;;;;4999498;28;20250;-74
2023/08/11 12:41:29;;;;;;;4.30;3.15;;;31.30;94.70;;;;;;5029614;28;21622;-74
2023/08/11 12:43:54;;;;;;;3.03;2.83;;;31.60;94.90;;;;;;5014589;28;20223;-75
2023/08/11 12:46:20;;;;;;;3.20;3.00;;;31.40;95.60;;;;;;5015212;28;20262;-73